Time;durP1;ratioP1;P1;durP2;ratioP2;P2;SDS_P1;SDS_P2;PMS_P1;PMS_P2;Temp;Humidity;BMP_temperature;BMP_pressure;BME280_temperature;BME280_humidity;BME280_pressure;Samples;Min_cycle;Max_cycle;Signal;HPM_P1;HPM_P2
2022/09/09 00:01:45;;;;;;;5.17;4.40;;;;;;;17.05;65.12;100647.59;4931561;28;97165;-48
2022/09/09 00:04:30;;;;;;;5.90;5.30;;;;;;;17.00;65.34;100640.09;4949248;28;100664;-49
2022/09/09 00:07:24;;;;;;;5.10;4.70;;;;;;;17.00;65.41;100640.09;4947395;28;97380;-49
2022/09/09 00:10:04;;;;;;;4.90;4.50;;;;;;;17.01;65.50;100646.41;4945283;28;96667;-49
2022/09/09 00:12:29;;;;;;;4.90;4.50;;;;;;;16.99;65.33;100644.16;4946545;28;96903;-48
2022/09/09 00:15:00;;;;;;;5.73;4.90;;;;;;;16.99;65.23;100649.72;4942880;28;97430;-50
2022/09/09 00:17:50;;;;;;;5.13;4.70;;;;;;;16.96;65.38;100647.28;4947478;28;97415;-50
2022/09/09 00:20:46;;;;;;;5.70;5.20;;;;;;;16.92;65.43;100646.84;4944202;28;97348;-52
2022/09/09 00:23:12;;;;;;;5.37;4.87;;;;;;;16.87;65.19;100651.25;4940953;28;96983;-49
2022/09/09 00:25:51;;;;;;;5.77;5.27;;;;;;;16.85;65.09;100639.16;4947676;28;97026;-49
2022/09/09 00:28:24;;;;;;;6.37;5.10;;;;;;;16.82;65.19;100640.97;4933574;28;98519;-50
2022/09/09 00:30:50;;;;;;;7.50;5.00;;;;;;;16.79;65.07;100636.50;4941025;28;97058;-48
2022/09/09 00:33:21;;;;;;;4.33;4.03;;;;;;;16.76;65.07;100645.16;4942334;28;96887;-49
2022/09/09 00:35:57;;;;;;;5.00;4.60;;;;;;;16.75;65.39;100643.66;4928233;28;97600;-48
2022/09/09 00:38:37;;;;;;;4.47;4.17;;;;;;;16.75;65.31;100640.91;4928955;28;97136;-49
2022/09/09 00:41:17;;;;;;;4.40;4.00;;;;;;;16.76;65.30;100634.78;4937428;28;96766;-49
2022/09/09 00:43:51;;;;;;;5.13;4.57;;;;;;;16.74;65.27;100647.72;4945035;28;96902;-48
2022/09/09 00:46:41;;;;;;;4.70;4.30;;;;;;;16.75;65.27;100643.66;4944811;28;100412;-49
2022/09/09 00:49:35;;;;;;;5.67;4.40;;;;;;;16.73;65.26;100638.63;4938416;28;100268;-48
2022/09/09 00:52:29;;;;;;;4.27;3.87;;;;;;;16.68;65.48;100639.50;4942171;28;97406;-49
2022/09/09 00:55:25;;;;;;;5.73;4.00;;;;;;;16.66;65.58;100635.75;4936491;28;97386;-49
2022/09/09 00:57:52;;;;;;;4.33;4.03;;;;;;;16.66;65.31;100638.53;4944856;28;100887;-50
2022/09/09 01:00:29;;;;;;;4.40;4.10;;;;;;;16.67;65.52;100640.03;4929960;28;97220;-49
2022/09/09 01:03:33;;;;;;;4.20;3.90;;;;;;;16.65;65.61;100643.34;4938636;28;104742;-50
2022/09/09 01:06:17;;;;;;;4.30;4.00;;;;;;;16.66;65.38;100639.31;4943301;28;96643;-50
2022/09/09 01:09:18;;;;;;;4.17;3.77;;;;;;;16.66;65.55;100644.09;4930284;28;101830;-49
2022/09/09 01:12:10;;;;;;;3.40;2.73;;;;;;;16.66;65.40;100644.09;4945402;28;100224;-50
2022/09/09 01:14:35;;;;;;;3.63;3.33;;;;;;;16.63;65.32;100639.59;4938079;28;96783;-49
2022/09/09 01:17:09;;;;;;;4.70;4.30;;;;;;;16.64;65.41;100643.88;4926831;28;96968;-49
2022/09/09 01:20:07;;;;;;;4.43;4.03;;;;;;;16.64;65.66;100655.00;4946735;28;97924;-49
2022/09/09 01:22:36;;;;;;;3.90;3.60;;;;;;;16.62;65.28;100643.69;4935344;28;100513;-48
2022/09/09 01:25:28;;;;;;;4.80;4.40;;;;;;;16.60;65.24;100646.97;4936647;28;97204;-49
2022/09/09 01:27:58;;;;;;;4.43;4.10;;;;;;;16.59;65.14;100636.41;4944895;28;97088;-48
2022/09/09 01:30:26;;;;;;;4.60;4.27;;;;;;;16.56;65.27;100635.44;4931092;28;97357;-49
2022/09/09 01:32:58;;;;;;;4.17;3.77;;;;;;;16.56;65.28;100638.22;4941255;28;100316;-49
2022/09/09 01:35:30;;;;;;;4.40;4.00;;;;;;;16.51;65.15;100636.31;4927758;28;97080;-48
2022/09/09 01:37:56;;;;;;;4.17;3.77;;;;;;;16.45;65.18;100633.59;4942873;28;96982;-50
2022/09/09 01:40:21;;;;;;;4.47;4.07;;;;;;;16.39;65.34;100632.94;4941030;28;97550;-49
2022/09/09 01:42:47;;;;;;;3.70;3.40;;;;;;;16.38;65.27;100628.66;4927536;28;97428;-47
2022/09/09 01:45:12;;;;;;;4.23;3.80;;;;;;;16.36;65.35;100639.56;4937503;28;97564;-46
2022/09/09 01:47:38;;;;;;;8.03;4.37;;;;;;;16.37;65.48;100629.97;4940861;28;97096;-48
2022/09/09 01:50:04;;;;;;;4.50;3.80;;;;;;;16.35;65.36;100626.22;4926665;28;97413;-47
2022/09/09 01:52:31;;;;;;;4.33;4.03;;;;;;;16.35;65.51;100623.44;4941178;28;97104;-47
2022/09/09 01:54:56;;;;;;;4.83;3.60;;;;;;;16.35;65.56;100618.66;4937892;28;96837;-47
2022/09/09 01:57:30;;;;;;;4.20;3.90;;;;;;;16.39;65.71;100619.06;4925541;28;100987;-48
2022/09/09 02:00:08;;;;;;;4.33;4.00;;;;;;;16.42;65.70;100625.59;4924594;28;97520;-50
2022/09/09 02:02:43;;;;;;;4.07;3.57;;;;;;;16.45;65.57;100630.81;4936955;28;97615;-47
2022/09/09 02:05:34;;;;;;;4.10;3.80;;;;;;;16.49;65.63;100622.16;4944660;28;97101;-47
2022/09/09 02:08:08;;;;;;;3.27;2.97;;;;;;;16.49;65.77;100625.69;4945555;28;96668;-48
2022/09/09 02:10:48;;;;;;;4.50;3.33;;;;;;;16.51;65.76;100627.22;4942976;28;97561;-50
2022/09/09 02:13:15;;;;;;;3.13;2.93;;;;;;;16.53;65.69;100622.63;4930966;28;97396;-46
2022/09/09 02:16:05;;;;;;;5.83;3.23;;;;;;;16.56;65.88;100613.22;4929215;28;97807;-49
2022/09/09 02:18:38;;;;;;;3.00;2.80;;;;;;;16.58;65.65;100626.59;4939660;28;97104;-48
2022/09/09 02:21:05;;;;;;;2.87;2.70;;;;;;;16.60;65.83;100624.03;4923945;28;101823;-48
2022/09/09 02:23:33;;;;;;;2.90;2.70;;;;;;;16.63;65.81;100636.81;4936898;28;98290;-47
2022/09/09 02:26:00;;;;;;;3.17;2.97;;;;;;;16.66;65.83;100632.97;4931215;28;97337;-49
2022/09/09 02:28:29;;;;;;;2.33;2.17;;;;;;;16.71;65.83;100621.03;4935833;28;96976;-47
2022/09/09 02:30:55;;;;;;;2.83;2.57;;;;;;;16.72;65.76;100628.81;4937600;28;97474;-48
2022/09/09 02:33:28;;;;;;;3.23;3.00;;;;;;;16.76;65.98;100620.16;4925548;28;96944;-47
2022/09/09 02:36:01;;;;;;;2.57;2.37;;;;;;;16.80;65.77;100623.34;4939994;28;97246;-49
2022/09/09 02:38:32;;;;;;;2.37;2.27;;;;;;;16.80;65.74;100620.56;4930030;28;97352;-48
2022/09/09 02:40:58;;;;;;;2.70;2.40;;;;;;;16.78;65.65;100620.34;4930599;28;98792;-48
2022/09/09 02:43:24;;;;;;;2.37;2.20;;;;;;;16.77;65.75;100621.66;4936133;28;97458;-48
2022/09/09 02:46:22;;;;;;;2.80;2.60;;;;;;;16.74;66.11;100625.50;4926597;28;97600;-48
2022/09/09 02:48:59;;;;;;;2.17;2.00;;;;;;;16.74;65.92;100625.50;4938916;28;97062;-48
2022/09/09 02:51:43;;;;;;;2.40;2.30;;;;;;;16.70;65.71;100627.84;4941768;28;98593;-48
2022/09/09 02:54:30;;;;;;;2.80;2.60;;;;;;;16.65;65.78;100626.69;4935902;28;101971;-49
2022/09/09 02:57:06;;;;;;;2.37;2.27;;;;;;;16.65;65.68;100626.69;4931856;28;97462;-48
2022/09/09 02:59:32;;;;;;;2.10;2.00;;;;;;;16.61;65.61;100623.47;4931080;28;96862;-49
2022/09/09 03:01:57;;;;;;;2.53;2.27;;;;;;;16.61;65.54;100622.72;4926604;28;97547;-49
2022/09/09 03:04:24;;;;;;;2.80;2.60;;;;;;;16.59;65.59;100625.28;4937162;28;107559;-48
2022/09/09 03:06:50;;;;;;;2.30;2.20;;;;;;;16.58;65.61;100624.53;4928724;28;97329;-49
2022/09/09 03:09:15;;;;;;;3.30;2.60;;;;;;;16.57;65.64;100625.09;4942902;28;103640;-49
2022/09/09 03:11:41;;;;;;;3.20;2.20;;;;;;;16.56;65.72;100626.34;4947460;28;97338;-48
2022/09/09 03:14:06;;;;;;;2.10;2.00;;;;;;;16.57;65.84;100636.19;4947908;28;103235;-48
2022/09/09 03:16:34;;;;;;;1.63;1.53;;;;;;;16.59;65.75;100647.50;4947091;28;96921;-48
2022/09/09 03:19:00;;;;;;;1.90;1.80;;;;;;;16.61;65.81;100647.72;4948566;28;96903;-54
2022/09/09 03:21:25;;;;;;;3.53;2.10;;;;;;;16.60;65.74;100649.75;4946651;28;97394;-48
2022/09/09 03:23:51;;;;;;;4.30;1.97;;;;;;;16.61;65.78;100653.28;4947104;28;108895;-48
2022/09/09 03:26:16;;;;;;;2.20;2.07;;;;;;;16.62;65.77;100640.91;4948136;28;97254;-48
2022/09/09 03:28:42;;;;;;;2.87;2.13;;;;;;;16.62;65.66;100640.91;4948500;28;100573;-49
2022/09/09 03:31:10;;;;;;;1.97;1.87;;;;;;;16.62;65.81;100640.91;4944326;28;97607;-48
2022/09/09 03:33:38;;;;;;;1.87;1.10;;;;;;;16.63;65.76;100640.34;4935418;28;101087;-48
2022/09/09 03:36:05;;;;;;;1.47;1.13;;;;;;;16.64;65.79;100635.56;4950401;28;97651;-48
2022/09/09 03:38:31;;;;;;;4.40;1.57;;;;;;;16.66;65.92;100632.97;4943160;28;97118;-48
2022/09/09 03:40:57;;;;;;;1.40;1.30;;;;;;;16.65;65.83;100635.00;4932351;28;98770;-48
2022/09/09 03:43:24;;;;;;;1.63;1.53;;;;;;;16.66;66.01;100632.97;4937283;28;97302;-47
2022/09/09 03:45:51;;;;;;;2.70;1.57;;;;;;;16.66;65.99;100632.97;4933608;28;97068;-47
2022/09/09 03:48:17;;;;;;;4.67;1.50;;;;;;;16.66;65.98;100641.31;4929268;28;97440;-49
2022/09/09 03:50:47;;;;;;;1.70;1.60;;;;;;;16.67;65.94;100631.69;4929663;28;97390;-47
2022/09/09 03:53:14;;;;;;;1.70;1.60;;;;;;;16.67;65.92;100628.91;4932312;28;99230;-48
2022/09/09 03:55:44;;;;;;;1.40;1.30;;;;;;;16.65;66.01;100637.03;4943874;28;96864;-49
2022/09/09 03:58:10;;;;;;;1.00;1.00;;;;;;;16.65;65.87;100643.34;4937328;28;96997;-49
2022/09/09 04:00:36;;;;;;;1.27;1.17;;;;;;;16.66;65.89;100641.31;4932855;28;96802;-49
2022/09/09 04:03:02;;;;;;;2.70;1.30;;;;;;;16.63;65.94;100642.38;4938672;28;97297;-48
2022/09/09 04:05:27;;;;;;;1.20;1.20;;;;;;;16.64;65.80;100644.63;4928380;28;96736;-48
2022/09/09 04:07:53;;;;;;;1.20;1.10;;;;;;;16.65;65.97;100646.13;4922653;28;98919;-48
2022/09/09 04:10:19;;;;;;;1.13;1.13;;;;;;;16.65;65.89;100653.69;4942419;28;98731;-49
2022/09/09 04:12:44;;;;;;;5.03;1.50;;;;;;;16.64;65.84;100641.09;4940966;28;97603;-48
2022/09/09 04:15:10;;;;;;;1.80;1.00;;;;;;;16.63;65.98;100651.47;4922644;28;108466;-48
2022/09/09 04:17:36;;;;;;;1.63;1.30;;;;;;;16.63;65.91;100642.38;4941025;28;98127;-48
2022/09/09 04:20:02;;;;;;;1.20;1.20;;;;;;;16.64;65.93;100641.88;4938323;28;98606;-48
2022/09/09 04:22:27;;;;;;;1.90;1.30;;;;;;;16.64;65.94;100638.34;4926438;28;98114;-49
2022/09/09 04:24:53;;;;;;;1.00;1.00;;;;;;;16.62;66.13;100636.06;4938051;28;96904;-48
2022/09/09 04:27:18;;;;;;;1.00;0.90;;;;;;;16.62;66.13;100644.41;4939958;28;104985;-48
2022/09/09 04:29:43;;;;;;;0.80;0.80;;;;;;;16.64;66.11;100643.88;4937568;28;108437;-48
2022/09/09 04:32:09;;;;;;;2.40;0.80;;;;;;;16.64;66.08;100638.34;4941952;28;115853;-48
2022/09/09 04:34:34;;;;;;;0.90;0.90;;;;;;;16.65;66.03;100642.59;4935273;28;102453;-48
2022/09/09 04:37:00;;;;;;;1.43;1.07;;;;;;;16.64;66.09;100643.88;4944614;28;97404;-48
2022/09/09 04:39:26;;;;;;;0.90;0.90;;;;;;;16.65;66.03;100637.03;4945877;28;97304;-48
2022/09/09 04:41:51;;;;;;;4.33;0.97;;;;;;;16.65;66.18;100637.03;4939723;28;97839;-49
2022/09/09 04:44:16;;;;;;;0.90;0.90;;;;;;;16.65;66.10;100642.59;4939352;28;97493;-48
2022/09/09 04:46:42;;;;;;;0.73;0.73;;;;;;;16.66;66.32;100644.84;4940951;28;97315;-48
2022/09/09 04:49:07;;;;;;;0.83;0.73;;;;;;;16.67;66.23;100643.56;4945492;28;97630;-49
2022/09/09 04:51:32;;;;;;;1.30;1.13;;;;;;;16.68;66.16;100658.97;4941237;28;98641;-48
2022/09/09 04:53:58;;;;;;;1.07;1.00;;;;;;;16.67;66.25;100657.44;4945719;28;96921;-49
2022/09/09 04:56:26;;;;;;;0.83;0.83;;;;;;;16.67;66.12;100662.25;4935078;28;97462;-48
2022/09/09 04:58:52;;;;;;;3.90;1.00;;;;;;;16.67;66.32;100656.69;4927750;28;101504;-48
2022/09/09 05:01:20;;;;;;;1.30;1.20;;;;;;;16.66;66.27;100652.44;4941736;28;97279;-48
2022/09/09 05:03:46;;;;;;;1.30;1.20;;;;;;;16.66;66.13;100653.19;4948352;28;97355;-49
2022/09/09 05:06:14;;;;;;;1.00;1.00;;;;;;;16.68;66.22;100660.97;4949450;28;99266;-48
2022/09/09 05:08:41;;;;;;;1.13;0.87;;;;;;;16.67;66.31;100660.22;4945300;28;97375;-49
2022/09/09 05:11:27;;;;;;;1.00;0.90;;;;;;;16.67;66.48;100659.47;4947509;28;96946;-47
2022/09/09 05:13:53;;;;;;;0.97;0.97;;;;;;;16.68;66.22;100666.53;4942725;28;97123;-48
2022/09/09 05:16:20;;;;;;;1.20;0.83;;;;;;;16.68;66.30;100672.09;4946059;28;97577;-47
2022/09/09 05:18:50;;;;;;;1.00;0.80;;;;;;;16.60;66.79;100662.91;4934119;28;99368;-51
2022/09/09 05:21:17;;;;;;;0.80;0.80;;;;;;;16.61;66.81;100664.38;4937775;28;97468;-50
2022/09/09 05:23:42;;;;;;;1.27;0.80;;;;;;;16.63;66.73;100682.03;4940965;28;97176;-47
2022/09/09 05:26:12;;;;;;;4.63;1.00;;;;;;;16.68;66.66;100674.88;4928406;28;97491;-50
2022/09/09 05:28:38;;;;;;;1.00;0.80;;;;;;;16.72;66.64;100676.03;4923825;28;97400;-52
2022/09/09 05:31:07;;;;;;;2.50;1.07;;;;;;;16.77;66.55;100669.66;4932619;28;97205;-49
2022/09/09 05:33:34;;;;;;;3.07;1.00;;;;;;;16.82;66.54;100670.81;4927348;28;97483;-47
2022/09/09 05:36:05;;;;;;;0.90;0.90;;;;;;;16.86;66.43;100682.34;4925240;28;96947;-49
2022/09/09 05:38:32;;;;;;;1.80;0.70;;;;;;;16.90;66.51;100674.44;4925242;28;97557;-49
2022/09/09 05:40:59;;;;;;;0.90;0.90;;;;;;;16.93;66.55;100678.91;4942787;28;101433;-50
2022/09/09 05:43:25;;;;;;;2.03;1.10;;;;;;;16.95;66.67;100682.66;4937373;28;96766;-47
2022/09/09 05:46:30;;;;;;;0.93;0.93;;;;;;;16.98;66.96;100667.69;4934566;28;97082;-47
2022/09/09 05:48:55;;;;;;;1.93;1.37;;;;;;;17.00;66.73;100675.50;4923661;28;103156;-48
2022/09/09 05:51:26;;;;;;;4.83;0.73;;;;;;;17.03;66.70;100674.44;4942506;28;97392;-49
2022/09/09 05:53:52;;;;;;;2.40;1.00;;;;;;;17.07;66.84;100689.50;4933502;28;97543;-47
2022/09/09 05:56:20;;;;;;;1.93;1.30;;;;;;;17.13;66.59;100690.13;4947137;28;96946;-49
2022/09/09 05:58:46;;;;;;;1.40;1.30;;;;;;;17.15;66.72;100693.13;4943399;28;97664;-49
2022/09/09 06:01:21;;;;;;;8.73;1.10;;;;;;;17.18;66.77;100699.63;4939851;28;97471;-49
2022/09/09 06:03:48;;;;;;;1.23;1.17;;;;;;;17.20;66.68;100697.06;4927753;28;97348;-49
2022/09/09 06:06:17;;;;;;;1.07;1.03;;;;;;;17.24;66.74;100686.38;4927181;28;97444;-47
2022/09/09 06:08:44;;;;;;;3.30;0.97;;;;;;;17.29;66.96;100695.88;4923840;28;97616;-49
2022/09/09 06:11:13;;;;;;;0.77;0.77;;;;;;;17.31;66.75;100688.50;4939999;28;97226;-48
2022/09/09 06:13:39;;;;;;;0.83;0.70;;;;;;;17.34;66.78;100690.22;4945747;28;96930;-49
2022/09/09 06:16:07;;;;;;;1.10;1.10;;;;;;;17.41;66.83;100694.38;4930169;28;96897;-49
2022/09/09 06:18:33;;;;;;;1.00;1.00;;;;;;;17.45;66.78;100695.50;4935926;28;98907;-49
2022/09/09 06:21:04;;;;;;;1.30;1.20;;;;;;;17.49;66.83;100698.72;4925900;28;108021;-49
2022/09/09 06:23:30;;;;;;;1.10;0.97;;;;;;;17.53;66.85;100701.94;4937973;28;97261;-50
2022/09/09 06:26:11;;;;;;;1.13;1.13;;;;;;;17.59;67.08;100702.56;4931153;28;97384;-49
2022/09/09 06:28:37;;;;;;;0.93;0.93;;;;;;;17.63;66.73;100694.63;4936804;28;97075;-49
2022/09/09 06:31:06;;;;;;;1.30;1.20;;;;;;;17.66;66.80;100693.56;4932358;28;97178;-49
2022/09/09 06:33:38;;;;;;;1.43;1.33;;;;;;;17.70;66.89;100696.75;4947920;28;96785;-50
2022/09/09 06:36:04;;;;;;;2.90;0.90;;;;;;;17.75;66.94;100701.44;4944773;28;96767;-49
2022/09/09 06:38:30;;;;;;;2.90;1.43;;;;;;;17.79;66.95;100701.84;4934959;28;96994;-49
2022/09/09 06:40:58;;;;;;;1.83;1.33;;;;;;;17.83;66.90;100695.94;4936104;28;97164;-51
2022/09/09 06:43:25;;;;;;;1.43;1.10;;;;;;;17.88;66.94;100698.63;4945372;28;97287;-50
2022/09/09 06:45:59;;;;;;;4.17;1.10;;;;;;;17.94;67.30;100699.22;4938331;28;97052;-49
2022/09/09 06:48:26;;;;;;;1.00;0.90;;;;;;;17.97;67.10;100700.91;4942946;28;102978;-49
2022/09/09 06:51:03;;;;;;;1.27;1.17;;;;;;;18.03;67.40;100700.03;4940942;28;97933;-49
2022/09/09 06:53:29;;;;;;;1.20;1.10;;;;;;;18.05;67.10;100700.22;4939798;28;97254;-49
2022/09/09 06:55:54;;;;;;;0.90;0.87;;;;;;;18.11;67.20;100698.81;4930955;28;97084;-50
2022/09/09 06:58:21;;;;;;;3.43;1.30;;;;;;;18.17;67.11;100696.66;4932334;28;97343;-49
2022/09/09 07:00:47;;;;;;;1.87;1.40;;;;;;;18.24;67.26;100700.78;4941537;28;97096;-49
2022/09/09 07:03:13;;;;;;;1.43;1.03;;;;;;;18.29;67.26;100689.50;4933712;28;97101;-50
2022/09/09 07:05:39;;;;;;;0.90;0.60;;;;;;;18.37;67.20;100686.78;4931507;28;97139;-49
2022/09/09 07:08:04;;;;;;;1.00;1.00;;;;;;;18.43;67.30;100690.91;4926344;28;96865;-49
2022/09/09 07:10:30;;;;;;;2.93;1.10;;;;;;;18.47;67.31;100687.81;4938202;28;97102;-49
2022/09/09 07:12:55;;;;;;;1.00;1.00;;;;;;;18.51;67.25;100680.59;4952069;28;97109;-50
2022/09/09 07:15:22;;;;;;;1.23;1.17;;;;;;;18.58;67.40;100693.84;4935251;28;97212;-50
2022/09/09 07:17:48;;;;;;;0.97;0.97;;;;;;;18.63;67.43;100690.13;4942887;28;97419;-49
2022/09/09 07:20:14;;;;;;;1.73;1.17;;;;;;;18.70;67.44;100694.28;4929192;28;97109;-49
2022/09/09 07:22:40;;;;;;;1.33;0.90;;;;;;;18.74;67.36;100691.16;4937561;28;97487;-50
2022/09/09 07:25:06;;;;;;;1.50;1.40;;;;;;;18.79;67.29;100693.78;4940320;28;97286;-50
2022/09/09 07:27:31;;;;;;;3.73;1.33;;;;;;;18.85;67.34;100697.16;4926343;28;96981;-49
2022/09/09 07:29:57;;;;;;;1.00;1.00;;;;;;;18.89;67.45;100689.19;4940385;28;101867;-49
2022/09/09 07:32:23;;;;;;;2.50;1.00;;;;;;;18.93;67.32;100689.59;4936788;28;97298;-49
2022/09/09 07:34:48;;;;;;;3.43;1.20;;;;;;;18.96;67.38;100694.06;4950710;28;96893;-50
2022/09/09 07:37:13;;;;;;;1.30;1.13;;;;;;;18.99;67.44;100690.19;4949252;28;97509;-53
2022/09/09 07:39:39;;;;;;;2.00;0.83;;;;;;;19.04;67.30;100699.69;4933285;28;97094;-47
2022/09/09 07:42:05;;;;;;;2.50;1.13;;;;;;;19.08;67.36;100703.63;4939864;28;97467;-47
2022/09/09 07:44:34;;;;;;;1.50;1.10;;;;;;;19.14;67.35;100700.66;4945805;28;97397;-47
2022/09/09 07:47:01;;;;;;;1.97;1.27;;;;;;;19.16;67.29;100703.63;4942080;28;97435;-50
2022/09/09 07:49:26;;;;;;;1.10;0.93;;;;;;;19.22;67.37;100723.75;4947154;28;98274;-53
2022/09/09 07:51:52;;;;;;;1.50;1.03;;;;;;;19.30;67.54;100714.13;4948709;28;97826;-50
2022/09/09 07:54:20;;;;;;;1.30;1.00;;;;;;;19.37;67.63;100713.41;4948112;28;97362;-48
2022/09/09 07:56:46;;;;;;;1.43;1.00;;;;;;;19.43;67.61;100711.22;4944773;28;97254;-48
2022/09/09 07:59:12;;;;;;;3.00;1.20;;;;;;;19.49;67.57;100724.25;4940582;28;97074;-47
2022/09/09 08:01:40;;;;;;;8.23;1.20;;;;;;;19.55;67.60;100731.16;4942656;28;97074;-47
2022/09/09 08:04:15;;;;;;;0.93;0.90;;;;;;;19.59;67.46;100725.25;4947625;28;96965;-50
2022/09/09 08:06:42;;;;;;;2.47;1.30;;;;;;;19.69;67.48;100726.19;4938052;28;103310;-48
2022/09/09 08:09:08;;;;;;;1.27;1.17;;;;;;;19.77;67.37;100724.91;4935518;28;97652;-48
2022/09/09 08:11:35;;;;;;;1.90;1.00;;;;;;;19.87;67.50;100725.13;4946032;28;97000;-53
2022/09/09 08:14:01;;;;;;;1.37;1.07;;;;;;;19.96;67.65;100728.09;4938687;28;97015;-49
2022/09/09 08:16:30;;;;;;;2.37;1.47;;;;;;;20.07;67.72;100727.75;4927396;28;97488;-47
2022/09/09 08:18:55;;;;;;;2.33;1.23;;;;;;;20.17;67.76;100722.38;4947502;28;97187;-52
2022/09/09 08:21:23;;;;;;;1.90;1.27;;;;;;;20.23;67.23;100722.97;4941411;28;103120;-47
2022/09/09 08:23:51;;;;;;;2.10;1.33;;;;;;;20.32;67.44;100722.41;4934058;28;97050;-50
2022/09/09 08:26:31;;;;;;;5.63;1.50;;;;;;;20.46;67.62;100717.38;4941997;28;96814;-52
2022/09/09 08:28:59;;;;;;;4.63;1.70;;;;;;;20.62;67.12;100725.19;4947034;28;101492;-47
2022/09/09 08:31:26;;;;;;;4.97;1.47;;;;;;;20.75;67.06;100718.66;4943696;28;97112;-49
2022/09/09 08:33:51;;;;;;;2.30;1.50;;;;;;;20.84;66.90;100729.25;4923770;28;97277;-49
2022/09/09 08:36:19;;;;;;;1.33;1.10;;;;;;;20.93;66.56;100721.03;4928282;28;97316;-51
2022/09/09 08:38:50;;;;;;;3.10;1.40;;;;;;;21.03;66.55;100732.44;4927148;28;97144;-50
2022/09/09 08:41:53;;;;;;;1.83;1.57;;;;;;;21.13;66.11;100738.91;4937495;28;97404;-48
2022/09/09 08:44:28;;;;;;;2.97;1.60;;;;;;;21.27;66.43;100739.44;4927351;28;97357;-46
2022/09/09 08:47:32;;;;;;;1.27;1.17;;;;;;;21.33;66.18;100734.38;4927135;28;96948;-50
2022/09/09 08:50:24;;;;;;;2.43;1.40;;;;;;;21.29;66.11;100734.78;4938957;28;101618;-50
2022/09/09 08:52:57;;;;;;;2.00;1.27;;;;;;;21.29;66.39;100737.56;4939769;28;97136;-49
2022/09/09 08:55:32;;;;;;;1.77;1.27;;;;;;;21.43;66.46;100740.84;4944824;28;96767;-48
2022/09/09 08:58:00;;;;;;;1.50;1.40;;;;;;;21.45;66.49;100733.38;4943003;28;97328;-48
2022/09/09 09:00:42;;;;;;;1.37;0.97;;;;;;;21.52;65.96;100740.25;4936381;28;97367;-48
2022/09/09 09:03:25;;;;;;;2.20;1.53;;;;;;;21.74;65.93;100744.25;4943280;28;97436;-47
2022/09/09 09:06:29;;;;;;;1.73;1.03;;;;;;;21.82;65.54;100740.09;4931877;28;97327;-48
2022/09/09 09:09:26;;;;;;;2.10;1.37;;;;;;;21.84;64.86;100734.69;4941463;28;101937;-49
2022/09/09 09:11:54;;;;;;;8.90;1.30;;;;;;;22.03;65.23;100742.63;4946874;28;100052;-48
2022/09/09 09:14:24;;;;;;;3.13;1.20;;;;;;;22.15;64.80;100741.59;4945965;28;96821;-48
2022/09/09 09:16:56;;;;;;;2.60;0.90;;;;;;;22.13;64.57;100749.84;4945073;28;97359;-47
2022/09/09 09:19:26;;;;;;;1.20;0.80;;;;;;;22.07;64.74;100748.56;4945993;28;97521;-51
2022/09/09 09:22:03;;;;;;;0.97;0.83;;;;;;;22.09;64.52;100746.69;4932981;28;97013;-48
2022/09/09 09:24:50;;;;;;;1.13;1.00;;;;;;;22.16;63.59;100754.31;4938240;28;96828;-47
2022/09/09 09:27:31;;;;;;;0.70;0.60;;;;;;;22.16;63.84;100742.34;4937580;28;97168;-48
2022/09/09 09:29:59;;;;;;;0.80;0.80;;;;;;;22.15;64.08;100755.59;4937393;28;102181;-48
2022/09/09 09:32:30;;;;;;;2.17;0.77;;;;;;;22.14;64.17;100751.34;4933128;28;97117;-48
2022/09/09 09:34:58;;;;;;;3.40;0.83;;;;;;;22.17;64.26;100744.56;4930643;28;97028;-47
2022/09/09 09:37:29;;;;;;;1.90;0.80;;;;;;;22.21;64.04;100744.91;4946315;28;97056;-47
2022/09/09 09:39:55;;;;;;;1.23;0.97;;;;;;;22.20;64.09;100749.03;4947044;28;102100;-51
2022/09/09 09:42:20;;;;;;;1.50;1.10;;;;;;;22.17;63.91;100749.44;4938811;28;97398;-48
2022/09/09 09:44:46;;;;;;;3.80;1.00;;;;;;;22.14;63.98;100759.00;4930716;28;96805;-47
2022/09/09 09:47:12;;;;;;;1.00;0.80;;;;;;;22.10;64.01;100751.00;4937889;28;97204;-50
2022/09/09 09:49:37;;;;;;;2.37;0.87;;;;;;;22.09;64.13;100754.34;4938857;28;99160;-47
2022/09/09 09:52:05;;;;;;;0.80;0.80;;;;;;;22.10;64.49;100748.19;4937337;28;97306;-48
2022/09/09 09:54:36;;;;;;;1.63;1.00;;;;;;;22.16;64.20;100748.69;4939234;28;97015;-53
2022/09/09 09:57:10;;;;;;;4.30;1.17;;;;;;;22.27;63.71;100748.25;4935536;28;96873;-48
2022/09/09 09:59:39;;;;;;;3.47;1.00;;;;;;;22.34;63.52;100744.63;4928582;28;97324;-49
2022/09/09 10:02:14;;;;;;;1.57;0.90;;;;;;;22.46;62.95;100747.72;4939560;28;97269;-50
2022/09/09 10:04:39;;;;;;;1.10;1.00;;;;;;;22.48;63.02;100747.13;4936189;28;96708;-47
2022/09/09 10:07:21;;;;;;;1.90;0.90;;;;;;;22.55;62.15;100744.28;4930550;28;97328;-48
2022/09/09 10:09:57;;;;;;;6.60;0.90;;;;;;;22.62;61.68;100732.28;4945260;28;97510;-50
2022/09/09 10:12:35;;;;;;;1.60;0.60;;;;;;;22.68;62.28;100723.63;4946324;28;102050;-50
2022/09/09 10:15:28;;;;;;;2.73;0.97;;;;;;;22.82;62.23;100728.34;4944389;28;96856;-52
2022/09/09 10:18:18;;;;;;;1.37;1.03;;;;;;;22.97;61.53;100722.59;4947424;28;97107;-49
2022/09/09 10:20:54;;;;;;;3.07;1.20;;;;;;;23.07;61.46;100723.41;4950065;28;103127;-51
2022/09/09 10:23:57;;;;;;;3.20;0.90;;;;;;;23.16;60.43;100716.38;4946184;28;97193;-49
2022/09/09 10:26:41;;;;;;;0.90;0.70;;;;;;;23.24;60.54;100728.25;4947100;28;97375;-48
2022/09/09 10:29:28;;;;;;;1.60;0.80;;;;;;;23.27;60.05;100732.72;4939401;28;97436;-48
2022/09/09 10:32:25;;;;;;;1.13;0.80;;;;;;;23.34;59.59;100722.75;4934053;28;101795;-51
2022/09/09 10:35:27;;;;;;;1.90;0.83;;;;;;;23.37;59.46;100722.31;4938880;28;101591;-47
2022/09/09 10:38:05;;;;;;;0.90;0.67;;;;;;;23.43;60.29;100724.88;4945997;28;96759;-48
2022/09/09 10:40:33;;;;;;;0.90;0.67;;;;;;;23.51;60.18;100729.06;4930998;28;97264;-50
2022/09/09 10:43:38;;;;;;;1.43;0.70;;;;;;;23.53;58.52;100726.44;4936443;28;97403;-49
2022/09/09 10:46:22;;;;;;;2.30;0.80;;;;;;;23.50;58.78;100724.03;4926060;28;101512;-49
2022/09/09 10:49:09;;;;;;;0.97;0.60;;;;;;;23.47;58.61;100725.94;4929322;28;96945;-49
2022/09/09 10:52:01;;;;;;;1.00;0.80;;;;;;;23.55;58.37;100720.97;4946541;28;96960;-47
2022/09/09 10:54:29;;;;;;;2.00;0.70;;;;;;;23.74;59.84;100720.34;4945121;28;97550;-51
2022/09/09 10:57:07;;;;;;;2.60;0.80;;;;;;;23.90;59.23;100709.63;4934139;28;97448;-47
2022/09/09 10:59:47;;;;;;;1.27;0.77;;;;;;;24.00;58.00;100708.34;4950541;28;97406;-49
2022/09/09 11:02:19;;;;;;;1.20;0.77;;;;;;;23.94;58.05;100710.66;4944191;28;96810;-53
2022/09/09 11:05:18;;;;;;;1.80;1.17;;;;;;;23.86;57.53;100712.84;4936920;28;96677;-48
2022/09/09 11:08:08;;;;;;;2.50;1.00;;;;;;;23.79;56.79;100714.44;4946204;28;100176;-47
2022/09/09 11:10:45;;;;;;;1.37;0.80;;;;;;;23.91;58.14;100711.09;4933377;28;97234;-47
2022/09/09 11:13:25;;;;;;;2.00;0.83;;;;;;;24.06;57.64;100705.28;4941444;28;96894;-48
2022/09/09 11:15:58;;;;;;;3.97;1.00;;;;;;;24.22;58.09;100709.34;4943744;28;101952;-47
2022/09/09 11:18:23;;;;;;;1.93;1.00;;;;;;;24.43;57.76;100707.47;4947485;28;101688;-50
2022/09/09 11:20:59;;;;;;;1.10;0.70;;;;;;;24.55;57.19;100707.66;4942312;28;97599;-48
2022/09/09 11:23:47;;;;;;;2.23;0.90;;;;;;;24.61;56.32;100707.38;4945046;28;96866;-49
2022/09/09 11:26:21;;;;;;;2.90;0.90;;;;;;;24.82;56.94;100705.50;4948741;28;101933;-48
2022/09/09 11:28:58;;;;;;;2.30;1.03;;;;;;;24.97;56.75;100705.19;4943276;28;97316;-48
2022/09/09 11:31:46;;;;;;;1.47;0.80;;;;;;;25.08;54.70;100715.88;4943434;28;97426;-48
2022/09/09 11:34:26;;;;;;;4.93;1.03;;;;;;;25.16;55.26;100722.09;4934027;28;97064;-50
2022/09/09 11:37:04;;;;;;;2.73;1.00;;;;;;;25.10;54.81;100718.84;4940299;28;101367;-48
2022/09/09 11:39:30;;;;;;;1.90;0.90;;;;;;;25.26;55.39;100716.47;4944387;28;96866;-47
2022/09/09 11:42:07;;;;;;;2.17;1.17;;;;;;;25.45;54.55;100729.78;4947743;28;97226;-48
2022/09/09 11:44:33;;;;;;;2.10;0.80;;;;;;;25.46;55.04;100725.66;4949425;28;97076;-48
2022/09/09 11:46:58;;;;;;;1.43;0.80;;;;;;;25.27;54.85;100715.84;4933669;28;99088;-50
2022/09/09 11:49:45;;;;;;;1.63;0.97;;;;;;;25.05;53.42;100714.22;4935620;28;97967;-47